Time;durP1;ratioP1;P1;durP2;ratioP2;P2;SDS_P1;SDS_P2;PMS_P1;PMS_P2;Temp;Humidity;BMP_temperature;BMP_pressure;BME280_temperature;BME280_humidity;BME280_pressure;Samples;Min_cycle;Max_cycle;Signal;HPM_P1;HPM_P2
2023/08/24 00:01:44;;;;;;;10.20;4.05;;;;;;;;;;4958407;28;20227;-50
2023/08/24 00:04:11;;;;;;;9.35;2.90;;;;;;;;;;4958400;28;20262;-50
2023/08/24 00:06:38;;;;;;;3.97;2.67;;;;;;;;;;4958325;28;20211;-49
2023/08/24 00:09:05;;;;;;;4.57;2.97;;;;;;;;;;4958563;28;20203;-48
2023/08/24 00:11:33;;;;;;;4.10;2.30;;;;;;;;;;4958315;28;20219;-49
2023/08/24 00:14:00;;;;;;;8.15;2.60;;;;;;;;;;4958165;28;20660;-49
2023/08/24 00:16:27;;;;;;;5.60;2.50;;;;;;;;;;4958269;28;20208;-48
2023/08/24 00:18:54;;;;;;;10.20;2.30;;;;;;;;;;4958161;29;20219;-49
2023/08/24 00:21:22;;;;;;;4.50;2.30;;;;;;;;;;4958073;28;20207;-49
2023/08/24 00:23:50;;;;;;;4.57;2.30;;;;;;;;;;4957893;28;20732;-52
2023/08/24 00:26:17;;;;;;;8.02;2.40;;;;;;;;;;4958318;28;20214;-50
2023/08/24 00:28:45;;;;;;;6.07;2.78;;;;;;;;;;4957909;29;20254;-49
2023/08/24 00:31:14;;;;;;;11.63;3.25;;;;;;;;;;4956805;29;20256;-52
2023/08/24 00:33:42;;;;;;;5.32;2.72;;;;;;;;;;4956748;29;20219;-49
2023/08/24 00:36:09;;;;;;;7.70;3.13;;;;;;;;;;4956897;29;20218;-48
2023/08/24 00:38:37;;;;;;;7.30;2.83;;;;;;;;;;4956358;29;20712;-49
2023/08/24 00:41:05;;;;;;;5.20;1.92;;;;;;;;;;4957713;28;20203;-48
2023/08/24 00:43:32;;;;;;;6.20;2.05;;;;;;;;;;4957818;29;20216;-49
2023/08/24 00:46:00;;;;;;;9.73;2.30;;;;;;;;;;4957721;29;20233;-51
2023/08/24 00:48:29;;;;;;;5.43;2.45;;;;;;;;;;4957586;28;20677;-49
2023/08/24 00:50:59;;;;;;;4.03;2.38;;;;;;;;;;4956399;29;20215;-48
2023/08/24 00:53:27;;;;;;;4.90;2.00;;;;;;;;;;4940918;29;20231;-51
2023/08/24 00:55:54;;;;;;;7.80;2.72;;;;;;;;;;4956588;29;20207;-48
2023/08/24 00:58:22;;;;;;;3.92;2.20;;;;;;;;;;4956588;29;20586;-49
2023/08/24 01:00:51;;;;;;;5.05;2.63;;;;;;;;;;4940063;29;20214;-52
2023/08/24 01:03:18;;;;;;;4.90;2.25;;;;;;;;;;4955952;29;20211;-48
2023/08/24 01:05:45;;;;;;;8.00;2.28;;;;;;;;;;4957275;29;20211;-52
2023/08/24 01:08:13;;;;;;;3.67;2.15;;;;;;;;;;4957248;28;20585;-52
2023/08/24 01:10:56;;;;;;;8.18;2.28;;;;;;;;;;4956156;29;20203;-49
2023/08/24 01:13:32;;;;;;;7.05;2.20;;;;;;;;;;4955967;29;20278;-53
2023/08/24 01:16:09;;;;;;;4.88;2.28;;;;;;;;;;4957299;28;20199;-51
2023/08/24 01:18:38;;;;;;;3.60;1.98;;;;;;;;;;4956449;29;20218;-52
2023/08/24 01:21:05;;;;;;;4.22;2.20;;;;;;;;;;4955856;29;20292;-52
2023/08/24 01:23:42;;;;;;;2.88;2.17;;;;;;;;;;4955735;29;20661;-52
2023/08/24 01:26:17;;;;;;;4.50;2.35;;;;;;;;;;4955762;29;20199;-49
2023/08/24 01:28:45;;;;;;;6.28;2.70;;;;;;;;;;4956924;28;20243;-53
2023/08/24 01:31:16;;;;;;;7.97;2.30;;;;;;;;;;4955694;29;20215;-50
2023/08/24 01:33:44;;;;;;;6.75;2.60;;;;;;;;;;4956881;29;20227;-54
2023/08/24 01:36:13;;;;;;;4.63;2.20;;;;;;;;;;4956634;29;20200;-52
2023/08/24 01:38:41;;;;;;;3.30;2.45;;;;;;;;;;4955569;29;20235;-50
2023/08/24 01:41:28;;;;;;;6.25;2.33;;;;;;;;;;4955437;29;20214;-48
2023/08/24 01:43:57;;;;;;;4.03;2.50;;;;;;;;;;4939658;29;20212;-50
2023/08/24 01:46:25;;;;;;;6.03;2.83;;;;;;;;;;4955683;28;20212;-51
2023/08/24 01:48:53;;;;;;;6.15;2.80;;;;;;;;;;4955472;29;20226;-48
2023/08/24 01:51:20;;;;;;;3.75;1.90;;;;;;;;;;4971648;28;20211;-54
2023/08/24 01:53:47;;;;;;;6.97;2.28;;;;;;;;;;4956217;29;20716;-47
2023/08/24 01:56:16;;;;;;;7.80;2.05;;;;;;;;;;4956294;29;20572;-50
2023/08/24 01:58:43;;;;;;;6.35;2.05;;;;;;;;;;4956434;29;20206;-48
2023/08/24 02:01:10;;;;;;;3.72;2.20;;;;;;;;;;4955194;28;20263;-52
2023/08/24 02:03:39;;;;;;;3.88;1.95;;;;;;;;;;4956157;29;20222;-50
2023/08/24 02:06:08;;;;;;;3.85;2.30;;;;;;;;;;4956066;28;20292;-52
2023/08/24 02:08:35;;;;;;;3.55;2.17;;;;;;;;;;4956395;29;20199;-54
2023/08/24 02:11:03;;;;;;;6.78;2.15;;;;;;;;;;4956360;29;20600;-49
2023/08/24 02:13:32;;;;;;;5.10;1.77;;;;;;;;;;4955837;28;20274;-49
2023/08/24 02:16:07;;;;;;;4.20;1.88;;;;;;;;;;4954778;29;20243;-50
2023/08/24 02:18:35;;;;;;;8.38;2.60;;;;;;;;;;4956245;28;20242;-49
2023/08/24 02:21:08;;;;;;;5.10;2.50;;;;;;;;;;4954782;28;20653;-49
2023/08/24 02:23:35;;;;;;;6.15;2.17;;;;;;;;;;4956477;28;20200;-49
2023/08/24 02:26:04;;;;;;;6.65;2.20;;;;;;;;;;4954595;29;20692;-48
2023/08/24 02:28:32;;;;;;;3.20;2.15;;;;;;;;;;4954445;28;20210;-52
2023/08/24 02:31:02;;;;;;;8.60;2.38;;;;;;;;;;4955323;29;20208;-52
2023/08/24 02:33:31;;;;;;;5.28;2.13;;;;;;;;;;4955638;29;20231;-53
2023/08/24 02:35:58;;;;;;;3.67;2.00;;;;;;;;;;4955932;28;20215;-50
2023/08/24 02:38:25;;;;;;;3.33;2.17;;;;;;;;;;4954536;28;20235;-50
2023/08/24 02:41:02;;;;;;;5.75;2.17;;;;;;;;;;4955929;29;20207;-52
2023/08/24 02:43:30;;;;;;;5.97;2.28;;;;;;;;;;4955589;29;20211;-52
2023/08/24 02:46:03;;;;;;;3.13;2.00;;;;;;;;;;4955700;28;20229;-49
2023/08/24 02:48:31;;;;;;;4.15;2.03;;;;;;;;;;4955499;29;20208;-50
2023/08/24 02:50:58;;;;;;;6.82;2.00;;;;;;;;;;4955435;29;20214;-48
2023/08/24 02:53:26;;;;;;;3.83;2.00;;;;;;;;;;4954498;29;20558;-48
2023/08/24 02:55:54;;;;;;;6.00;1.92;;;;;;;;;;4955278;29;20206;-51
2023/08/24 02:58:22;;;;;;;3.00;2.28;;;;;;;;;;4954261;28;20208;-48
2023/08/24 03:00:49;;;;;;;4.75;2.22;;;;;;;;;;4954409;29;20290;-51
2023/08/24 03:03:17;;;;;;;6.70;2.03;;;;;;;;;;4955031;29;20199;-49
2023/08/24 03:06:01;;;;;;;3.45;1.80;;;;;;;;;;4955101;29;20211;-48
2023/08/24 03:08:32;;;;;;;3.58;1.80;;;;;;;;;;4955018;28;20218;-51
2023/08/24 03:10:59;;;;;;;5.25;2.00;;;;;;;;;;4953856;28;20664;-50
2023/08/24 03:13:29;;;;;;;4.15;1.73;;;;;;;;;;4953900;28;20305;-49
2023/08/24 03:15:56;;;;;;;2.95;2.13;;;;;;;;;;4953952;29;20203;-49
2023/08/24 03:18:27;;;;;;;13.75;3.47;;;;;;;;;;4953794;29;20211;-49
2023/08/24 03:20:55;;;;;;;7.10;3.30;;;;;;;;;;4953950;29;20203;-49
2023/08/24 03:23:22;;;;;;;5.63;3.00;;;;;;;;;;4954011;29;20203;-48
2023/08/24 03:25:49;;;;;;;7.90;3.25;;;;;;;;;;4956728;28;20230;-49
2023/08/24 03:28:17;;;;;;;4.03;2.28;;;;;;;;;;4989665;28;20274;-48
2023/08/24 03:30:49;;;;;;;6.88;3.50;;;;;;;;;;4958842;29;20203;-50
2023/08/24 03:33:17;;;;;;;5.25;3.35;;;;;;;;;;4957609;29;20199;-49
2023/08/24 03:35:44;;;;;;;7.18;3.47;;;;;;;;;;4958648;28;20213;-49
2023/08/24 03:38:12;;;;;;;10.30;3.97;;;;;;;;;;4957503;29;20203;-54
2023/08/24 03:40:39;;;;;;;5.90;3.17;;;;;;;;;;4958557;28;20207;-48
2023/08/24 03:43:06;;;;;;;9.65;3.63;;;;;;;;;;4957412;29;20618;-49
2023/08/24 03:45:33;;;;;;;10.13;3.83;;;;;;;;;;4957266;29;20204;-50
2023/08/24 03:48:01;;;;;;;5.32;3.00;;;;;;;;;;4958269;28;20692;-51
2023/08/24 03:50:28;;;;;;;5.03;3.20;;;;;;;;;;4973191;28;20719;-52
2023/08/24 03:52:55;;;;;;;4.13;2.85;;;;;;;;;;4948612;29;20673;-50
2023/08/24 03:55:23;;;;;;;6.35;3.10;;;;;;;;;;4954504;29;20224;-56
2023/08/24 03:57:51;;;;;;;6.70;3.88;;;;;;;;;;4957085;29;20258;-50
2023/08/24 04:00:19;;;;;;;4.80;3.28;;;;;;;;;;4973052;28;20211;-56
2023/08/24 04:02:48;;;;;;;5.63;3.80;;;;;;;;;;4970777;28;20215;-48
2023/08/24 04:05:22;;;;;;;5.15;3.92;;;;;;;;;;4949380;29;20661;-47
2023/08/24 04:07:49;;;;;;;5.00;3.47;;;;;;;;;;4958299;28;20679;-48
2023/08/24 04:10:17;;;;;;;6.70;3.55;;;;;;;;;;4958374;29;20234;-49
2023/08/24 04:12:44;;;;;;;5.13;3.50;;;;;;;;;;4951099;28;20227;-48
2023/08/24 04:15:11;;;;;;;5.43;3.45;;;;;;;;;;4957430;29;20227;-50
2023/08/24 04:17:38;;;;;;;6.03;4.00;;;;;;;;;;4957267;28;20292;-47
2023/08/24 04:20:09;;;;;;;6.78;3.97;;;;;;;;;;4956574;29;20317;-47
2023/08/24 04:22:37;;;;;;;8.32;4.00;;;;;;;;;;4957306;28;20699;-49
2023/08/24 04:25:04;;;;;;;5.13;3.92;;;;;;;;;;4957336;28;20290;-49
2023/08/24 04:27:32;;;;;;;5.80;4.07;;;;;;;;;;4956854;28;20282;-47
2023/08/24 04:30:00;;;;;;;6.05;3.63;;;;;;;;;;4957460;28;20229;-47
2023/08/24 04:32:28;;;;;;;7.10;3.63;;;;;;;;;;4957005;28;20223;-48
2023/08/24 04:34:55;;;;;;;6.93;4.20;;;;;;;;;;4957286;28;20778;-50
2023/08/24 04:37:22;;;;;;;5.25;3.88;;;;;;;;;;4956794;28;20700;-47
2023/08/24 04:39:49;;;;;;;5.10;3.72;;;;;;;;;;4957088;28;20247;-47
2023/08/24 04:42:17;;;;;;;5.38;3.70;;;;;;;;;;4956335;28;20718;-47
2023/08/24 04:44:44;;;;;;;8.45;4.28;;;;;;;;;;4957453;28;20241;-47
2023/08/24 04:47:11;;;;;;;6.53;4.95;;;;;;;;;;4956775;28;20234;-47
2023/08/24 04:49:38;;;;;;;10.48;4.03;;;;;;;;;;4956934;28;20561;-50
2023/08/24 04:52:05;;;;;;;6.07;3.85;;;;;;;;;;4955992;28;20242;-51
2023/08/24 04:54:33;;;;;;;9.45;3.80;;;;;;;;;;4954981;28;20819;-47
2023/08/24 04:57:01;;;;;;;5.88;3.83;;;;;;;;;;4954526;28;20234;-48
2023/08/24 04:59:27;;;;;;;6.20;3.63;;;;;;;;;;4955070;28;20231;-47
2023/08/24 05:01:55;;;;;;;7.38;3.85;;;;;;;;;;4955080;28;20747;-47
2023/08/24 05:04:22;;;;;;;5.72;3.42;;;;;;;;;;4955568;28;20269;-47
2023/08/24 05:06:49;;;;;;;8.10;3.35;;;;;;;;;;4955748;28;20222;-49
2023/08/24 05:09:16;;;;;;;4.38;3.15;;;;;;;;;;4956527;28;20259;-47
2023/08/24 05:11:43;;;;;;;4.90;3.22;;;;;;;;;;4956111;28;20239;-47
2023/08/24 05:14:10;;;;;;;7.18;3.47;;;;;;;;;;4956341;28;20274;-48
2023/08/24 05:16:38;;;;;;;9.35;3.42;;;;;;;;;;4956768;29;20219;-47
2023/08/24 05:19:05;;;;;;;5.50;3.30;;;;;;;;;;4955963;28;20200;-47
2023/08/24 05:21:32;;;;;;;5.00;3.25;;;;;;;;;;4956227;28;20203;-47
2023/08/24 05:23:59;;;;;;;5.88;3.00;;;;;;;;;;4955375;28;20570;-47
2023/08/24 05:26:26;;;;;;;6.90;3.38;;;;;;;;;;4957175;29;20219;-47
2023/08/24 05:28:53;;;;;;;5.88;3.08;;;;;;;;;;4956735;29;20203;-49
2023/08/24 05:31:21;;;;;;;7.07;3.75;;;;;;;;;;4956846;28;20203;-47
2023/08/24 05:33:48;;;;;;;5.03;3.85;;;;;;;;;;4956759;29;20206;-53
2023/08/24 05:36:15;;;;;;;4.88;3.53;;;;;;;;;;4956653;28;20555;-52
2023/08/24 05:38:46;;;;;;;9.02;3.40;;;;;;;;;;4956505;28;20258;-51
2023/08/24 05:41:29;;;;;;;6.60;3.75;;;;;;;;;;4956690;29;20219;-48
2023/08/24 05:43:57;;;;;;;5.15;3.58;;;;;;;;;;4956931;29;20219;-49
2023/08/24 05:46:24;;;;;;;9.32;3.88;;;;;;;;;;4956835;29;20282;-49
2023/08/24 05:48:51;;;;;;;8.82;4.25;;;;;;;;;;4956174;28;20207;-52
2023/08/24 05:51:18;;;;;;;8.25;3.92;;;;;;;;;;4956443;28;20211;-49
2023/08/24 05:53:46;;;;;;;9.57;3.15;;;;;;;;;;4956564;28;20648;-49
2023/08/24 05:56:13;;;;;;;6.82;3.25;;;;;;;;;;4956145;28;20232;-47
2023/08/24 05:58:40;;;;;;;6.63;3.83;;;;;;;;;;4953422;29;20203;-47
2023/08/24 06:01:07;;;;;;;5.00;3.47;;;;;;;;;;4955834;28;20206;-48
2023/08/24 06:03:34;;;;;;;5.78;3.40;;;;;;;;;;4955815;28;20270;-50
2023/08/24 06:06:03;;;;;;;6.53;3.85;;;;;;;;;;4955632;28;20675;-48
2023/08/24 06:08:31;;;;;;;7.18;3.47;;;;;;;;;;4955868;29;20212;-54
2023/08/24 06:10:58;;;;;;;10.05;3.50;;;;;;;;;;4954620;29;20278;-48
2023/08/24 06:13:25;;;;;;;6.05;3.40;;;;;;;;;;4955788;28;20188;-48
2023/08/24 06:15:54;;;;;;;6.93;3.17;;;;;;;;;;4956012;29;20215;-48
2023/08/24 06:18:21;;;;;;;10.50;3.63;;;;;;;;;;4953310;29;20665;-47
2023/08/24 06:20:49;;;;;;;6.72;2.85;;;;;;;;;;4955398;28;20199;-47
2023/08/24 06:23:19;;;;;;;7.22;3.05;;;;;;;;;;4955697;28;20202;-48
2023/08/24 06:25:47;;;;;;;8.20;3.10;;;;;;;;;;4955389;28;20195;-48
2023/08/24 06:28:14;;;;;;;4.20;3.22;;;;;;;;;;4955298;28;20247;-47
2023/08/24 06:30:43;;;;;;;4.20;3.05;;;;;;;;;;4936564;29;20681;-46
2023/08/24 06:33:10;;;;;;;6.47;3.13;;;;;;;;;;4948225;29;20207;-48
2023/08/24 06:35:38;;;;;;;7.13;3.70;;;;;;;;;;4955359;29;20233;-47
2023/08/24 06:38:05;;;;;;;5.50;2.90;;;;;;;;;;4955199;28;20203;-47
2023/08/24 06:40:32;;;;;;;5.28;3.05;;;;;;;;;;4954985;28;20203;-48
2023/08/24 06:43:00;;;;;;;8.05;3.40;;;;;;;;;;4954926;28;20250;-49
2023/08/24 06:45:27;;;;;;;6.88;3.33;;;;;;;;;;4955717;28;20202;-47
2023/08/24 06:47:54;;;;;;;4.35;2.72;;;;;;;;;;4955601;28;20260;-48
2023/08/24 06:50:21;;;;;;;5.63;3.13;;;;;;;;;;4955485;29;20207;-46
2023/08/24 06:52:49;;;;;;;5.97;3.03;;;;;;;;;;4955541;29;20204;-47
2023/08/24 06:55:16;;;;;;;5.03;3.20;;;;;;;;;;4955349;29;20219;-47
2023/08/24 06:57:48;;;;;;;8.93;3.10;;;;;;;;;;4955374;29;20208;-47
2023/08/24 07:00:16;;;;;;;4.10;2.90;;;;;;;;;;4954811;28;20207;-46
2023/08/24 07:02:43;;;;;;;4.45;2.90;;;;;;;;;;4955190;29;20200;-47
2023/08/24 07:05:12;;;;;;;6.50;3.13;;;;;;;;;;4955357;28;20258;-47
2023/08/24 07:07:43;;;;;;;10.07;3.05;;;;;;;;;;4955465;28;20238;-49
2023/08/24 07:10:10;;;;;;;4.75;2.90;;;;;;;;;;4955256;28;20207;-47
2023/08/24 07:12:40;;;;;;;3.92;2.85;;;;;;;;;;4955192;28;20211;-46
2023/08/24 07:15:08;;;;;;;4.90;2.60;;;;;;;;;;4955668;28;20223;-47
2023/08/24 07:17:35;;;;;;;4.50;2.38;;;;;;;;;;4955537;28;20215;-46
2023/08/24 07:20:08;;;;;;;6.78;2.20;;;;;;;;;;4955283;29;20204;-50
2023/08/24 07:22:35;;;;;;;4.63;2.05;;;;;;;;;;4955154;28;20645;-47
2023/08/24 07:25:05;;;;;;;3.10;1.77;;;;;;;;;;4955095;28;20684;-46
2023/08/24 07:27:33;;;;;;;2.88;1.70;;;;;;;;;;4955365;28;20215;-46
2023/08/24 07:30:05;;;;;;;3.38;1.60;;;;;;;;;;4955116;28;20730;-47
2023/08/24 07:32:48;;;;;;;5.82;1.80;;;;;;;;;;4955100;28;20218;-46
2023/08/24 07:35:16;;;;;;;2.35;1.48;;;;;;;;;;4954930;28;20270;-46
2023/08/24 07:37:43;;;;;;;3.92;1.25;;;;;;;;;;4955286;28;20262;-47
2023/08/24 07:40:11;;;;;;;3.17;2.00;;;;;;;;;;4955264;28;20231;-47
2023/08/24 07:42:46;;;;;;;3.03;1.52;;;;;;;;;;4946091;28;20223;-50
2023/08/24 07:45:14;;;;;;;2.33;1.40;;;;;;;;;;4946852;29;20235;-51
2023/08/24 07:47:41;;;;;;;5.18;1.65;;;;;;;;;;4950402;28;20230;-50
2023/08/24 07:50:09;;;;;;;3.03;1.40;;;;;;;;;;4950135;28;20223;-49
2023/08/24 07:52:38;;;;;;;5.93;1.50;;;;;;;;;;4951449;28;20219;-51
2023/08/24 07:55:07;;;;;;;4.82;1.77;;;;;;;;;;4951085;28;20224;-52
2023/08/24 07:57:35;;;;;;;2.42;1.30;;;;;;;;;;4950814;28;20282;-54
2023/08/24 08:00:05;;;;;;;4.45;1.48;;;;;;;;;;4950759;28;20309;-54
2023/08/24 08:02:41;;;;;;;1.83;1.27;;;;;;;;;;4949868;28;20274;-52
2023/08/24 08:05:10;;;;;;;3.20;1.50;;;;;;;;;;4952116;28;20223;-53
2023/08/24 08:07:38;;;;;;;6.38;1.80;;;;;;;;;;4950290;28;20275;-48
2023/08/24 08:10:06;;;;;;;2.15;1.40;;;;;;;;;;4950842;28;20723;-50
2023/08/24 08:12:34;;;;;;;3.40;1.58;;;;;;;;;;4955452;28;20239;-52
2023/08/24 08:15:02;;;;;;;3.03;1.70;;;;;;;;;;4955976;28;20233;-52
2023/08/24 08:17:30;;;;;;;1.95;1.48;;;;;;;;;;4956138;28;20234;-51
2023/08/24 08:19:58;;;;;;;3.35;1.55;;;;;;;;;;4955822;28;20211;-50
2023/08/24 08:22:25;;;;;;;5.60;1.58;;;;;;;;;;4956239;28;20570;-50
2023/08/24 08:24:56;;;;;;;2.80;1.50;;;;;;;;;;4953971;28;20223;-53
2023/08/24 08:27:23;;;;;;;3.13;1.52;;;;;;;;;;4951475;28;20227;-49
2023/08/24 08:29:50;;;;;;;7.13;1.67;;;;;;;;;;4954400;28;20309;-49
2023/08/24 08:32:18;;;;;;;5.00;1.95;;;;;;;;;;4951117;28;21257;-53
2023/08/24 08:34:45;;;;;;;3.47;1.35;;;;;;;;;;4954125;28;20212;-51
2023/08/24 08:37:12;;;;;;;5.85;1.40;;;;;;;;;;4946343;28;20228;-52
2023/08/24 08:39:39;;;;;;;3.60;1.40;;;;;;;;;;4938475;28;20247;-52
2023/08/24 08:42:12;;;;;;;10.10;1.65;;;;;;;;;;4946736;28;20219;-51
2023/08/24 08:44:41;;;;;;;4.88;1.60;;;;;;;;;;4938260;28;20208;-51
2023/08/24 08:47:11;;;;;;;4.82;1.80;;;;;;;;;;4938746;28;20208;-53
2023/08/24 08:49:45;;;;;;;2.47;1.75;;;;;;;;;;4938079;28;20728;-50
2023/08/24 08:52:12;;;;;;;5.20;1.85;;;;;;;;;;4946893;28;20202;-52
2023/08/24 08:54:40;;;;;;;2.25;1.40;;;;;;;;;;4937676;28;20827;-51
2023/08/24 08:57:07;;;;;;;3.80;1.95;;;;;;;;;;4938796;28;20211;-53
2023/08/24 08:59:35;;;;;;;4.13;1.90;;;;;;;;;;4936398;28;20606;-51
2023/08/24 09:02:02;;;;;;;3.33;1.50;;;;;;;;;;4951795;28;20199;-52
2023/08/24 09:04:33;;;;;;;2.28;1.38;;;;;;;;;;4953753;28;20250;-53
2023/08/24 09:07:04;;;;;;;5.53;1.70;;;;;;;;;;4954252;28;20208;-49
2023/08/24 09:09:33;;;;;;;4.43;1.90;;;;;;;;;;4958829;28;20206;-50
2023/08/24 09:12:00;;;;;;;4.90;2.28;;;;;;;;;;4954965;28;20206;-49
2023/08/24 09:14:27;;;;;;;3.90;1.83;;;;;;;;;;4951166;28;20290;-49
2023/08/24 09:16:55;;;;;;;5.68;1.95;;;;;;;;;;4955053;28;20339;-49
2023/08/24 09:19:29;;;;;;;4.22;1.77;;;;;;;;;;4955115;28;20215;-49
2023/08/24 09:21:58;;;;;;;3.85;1.70;;;;;;;;;;4955689;28;20203;-50
2023/08/24 09:24:34;;;;;;;4.43;1.45;;;;;;;;;;4951487;28;20735;-49
2023/08/24 09:27:18;;;;;;;2.63;1.27;;;;;;;;;;4943701;28;20214;-50
2023/08/24 09:29:52;;;;;;;3.60;1.50;;;;;;;;;;4944685;28;20211;-51
2023/08/24 09:32:29;;;;;;;4.13;1.42;;;;;;;;;;4945778;28;20226;-51
2023/08/24 09:35:02;;;;;;;4.18;1.20;;;;;;;;;;4937038;28;20254;-52
2023/08/24 09:37:36;;;;;;;2.40;1.20;;;;;;;;;;4946925;28;20211;-49
2023/08/24 09:40:07;;;;;;;1.75;1.10;;;;;;;;;;4943422;28;20240;-49
2023/08/24 09:42:42;;;;;;;3.97;1.20;;;;;;;;;;4945897;28;20641;-50
2023/08/24 09:45:13;;;;;;;3.22;1.13;;;;;;;;;;4936868;28;20192;-49
2023/08/24 09:47:52;;;;;;;4.65;1.08;;;;;;;;;;4947161;28;20207;-49
2023/08/24 09:50:19;;;;;;;1.42;0.90;;;;;;;;;;4941106;28;20231;-53
2023/08/24 09:52:48;;;;;;;2.20;1.00;;;;;;;;;;4945499;28;20211;-53
2023/08/24 09:55:21;;;;;;;2.75;1.20;;;;;;;;;;4945957;28;20196;-52
2023/08/24 09:57:51;;;;;;;2.75;1.33;;;;;;;;;;4937654;28;20212;-51
2023/08/24 10:00:22;;;;;;;1.33;1.00;;;;;;;;;;4936865;28;20283;-53
2023/08/24 10:02:53;;;;;;;2.10;1.10;;;;;;;;;;4950048;28;20208;-54
2023/08/24 10:05:23;;;;;;;4.20;1.45;;;;;;;;;;4961879;28;20339;-51
2023/08/24 10:07:55;;;;;;;2.58;1.05;;;;;;;;;;4937450;28;20212;-51
2023/08/24 10:10:25;;;;;;;2.67;1.10;;;;;;;;;;4936780;28;20219;-51
2023/08/24 10:12:57;;;;;;;5.18;1.27;;;;;;;;;;4943682;28;20215;-53
2023/08/24 10:15:24;;;;;;;4.50;1.23;;;;;;;;;;4942486;28;20223;-54
2023/08/24 10:17:52;;;;;;;1.52;1.05;;;;;;;;;;4944362;28;20203;-49
2023/08/24 10:20:20;;;;;;;3.85;0.85;;;;;;;;;;4936761;28;20223;-50
2023/08/24 10:22:48;;;;;;;1.58;0.93;;;;;;;;;;4944745;28;20695;-53
2023/08/24 10:25:17;;;;;;;3.13;1.00;;;;;;;;;;4935790;28;20200;-49
2023/08/24 10:27:47;;;;;;;3.35;1.15;;;;;;;;;;4939081;28;20203;-52
2023/08/24 10:30:14;;;;;;;3.78;1.23;;;;;;;;;;4951851;28;20225;-50
2023/08/24 10:32:43;;;;;;;3.08;1.15;;;;;;;;;;4951888;28;20226;-51
2023/08/24 10:35:10;;;;;;;4.78;1.48;;;;;;;;;;4959871;28;20266;-49
2023/08/24 10:37:40;;;;;;;1.55;0.85;;;;;;;;;;4946920;28;20584;-48
2023/08/24 10:40:08;;;;;;;5.25;1.15;;;;;;;;;;4951172;28;20238;-48
2023/08/24 10:42:46;;;;;;;2.65;1.15;;;;;;;;;;4957178;28;20231;-52
2023/08/24 10:45:13;;;;;;;5.97;1.48;;;;;;;;;;4948688;28;20247;-50
2023/08/24 10:47:48;;;;;;;3.70;1.60;;;;;;;;;;4944629;28;20700;-50
2023/08/24 10:50:15;;;;;;;2.83;1.15;;;;;;;;;;4935053;28;20224;-50
2023/08/24 10:52:46;;;;;;;2.83;1.10;;;;;;;;;;4939282;28;20378;-50
2023/08/24 10:55:25;;;;;;;2.22;0.95;;;;;;;;;;4934563;28;20695;-48
2023/08/24 10:57:59;;;;;;;1.05;0.90;;;;;;;;;;4950856;28;20234;-51
2023/08/24 11:00:28;;;;;;;6.13;1.55;;;;;;;;;;4947208;28;20222;-54
2023/08/24 11:02:56;;;;;;;2.50;1.20;;;;;;;;;;4939041;28;20244;-51
2023/08/24 11:05:30;;;;;;;2.25;1.10;;;;;;;;;;4946836;28;20279;-51
2023/08/24 11:08:00;;;;;;;4.38;0.90;;;;;;;;;;4956215;28;20215;-49
2023/08/24 11:10:42;;;;;;;2.08;1.20;;;;;;;;;;4961779;28;20220;-52
2023/08/24 11:13:14;;;;;;;4.00;1.20;;;;;;;;;;4943282;28;20231;-50
2023/08/24 11:15:43;;;;;;;5.75;1.15;;;;;;;;;;4937847;28;20266;-49
2023/08/24 11:18:13;;;;;;;2.55;0.80;;;;;;;;;;4947053;28;20216;-53
2023/08/24 11:20:45;;;;;;;1.23;1.00;;;;;;;;;;4934724;28;20310;-51
2023/08/24 11:23:12;;;;;;;1.92;1.02;;;;;;;;;;4949324;28;20739;-50
2023/08/24 11:25:40;;;;;;;2.60;1.15;;;;;;;;;;4939027;28;20303;-55
2023/08/24 11:28:07;;;;;;;1.70;1.00;;;;;;;;;;4945923;28;20214;-53
2023/08/24 11:30:35;;;;;;;2.05;1.15;;;;;;;;;;4934170;28;20204;-53
2023/08/24 11:33:03;;;;;;;2.88;1.25;;;;;;;;;;4938605;28;20561;-51
2023/08/24 11:35:35;;;;;;;3.90;1.25;;;;;;;;;;4934472;28;20211;-53
2023/08/24 11:38:04;;;;;;;4.57;1.00;;;;;;;;;;4946365;28;20687;-52
2023/08/24 11:40:31;;;;;;;3.25;1.15;;;;;;;;;;4934966;28;20677;-54
2023/08/24 11:42:59;;;;;;;4.05;1.23;;;;;;;;;;4939254;28;20212;-51
2023/08/24 11:45:31;;;;;;;4.07;1.23;;;;;;;;;;4935667;28;20546;-52
2023/08/24 11:48:04;;;;;;;3.50;1.27;;;;;;;;;;4950758;28;20570;-54
2023/08/24 11:50:33;;;;;;;2.80;1.23;;;;;;;;;;4938949;28;20196;-50
2023/08/24 11:53:02;;;;;;;4.32;1.48;;;;;;;;;;4942936;28;20207;-56
2023/08/24 11:55:29;;;;;;;1.63;1.13;;;;;;;;;;4939059;28;20581;-50
2023/08/24 11:57:56;;;;;;;2.58;1.30;;;;;;;;;;4950182;28;20214;-50
2023/08/24 12:00:24;;;;;;;3.60;0.80;;;;;;;;;;4942273;28;20298;-51
2023/08/24 12:02:51;;;;;;;2.17;1.08;;;;;;;;;;4951184;28;20717;-51
2023/08/24 12:05:23;;;;;;;3.45;1.05;;;;;;;;;;4938423;28;20726;-52
2023/08/24 12:07:54;;;;;;;2.95;0.77;;;;;;;;;;4948916;28;20207;-54
2023/08/24 12:10:21;;;;;;;5.10;1.30;;;;;;;;;;4940146;28;20676;-53
2023/08/24 12:12:49;;;;;;;2.92;1.27;;;;;;;;;;4942723;28;20203;-51
2023/08/24 12:15:20;;;;;;;1.77;1.23;;;;;;;;;;4952809;28;20291;-51
2023/08/24 12:17:48;;;;;;;6.97;1.20;;;;;;;;;;4947660;28;20247;-54
2023/08/24 12:20:22;;;;;;;9.90;1.35;;;;;;;;;;4941183;28;20207;-50
2023/08/24 12:22:53;;;;;;;2.28;1.27;;;;;;;;;;4942479;28;20211;-54
2023/08/24 12:25:23;;;;;;;1.63;1.23;;;;;;;;;;4938504;28;20196;-55
2023/08/24 12:28:17;;;;;;;5.30;1.52;;;;;;;;;;4940233;28;20211;-54
2023/08/24 12:30:48;;;;;;;3.88;1.48;;;;;;;;;;4945829;28;20220;-52
2023/08/24 12:33:26;;;;;;;3.15;1.20;;;;;;;;;;4948488;28;20283;-50
2023/08/24 12:35:55;;;;;;;13.07;3.15;;;;;;;;;;4952206;28;20230;-51
2023/08/24 12:38:23;;;;;;;5.22;1.83;;;;;;;;;;4954792;28;20294;-50
2023/08/24 12:40:51;;;;;;;12.60;3.13;;;;;;;;;;4941741;28;20581;-53
2023/08/24 12:43:19;;;;;;;3.00;1.63;;;;;;;;;;4959477;28;20231;-51
2023/08/24 12:45:46;;;;;;;3.50;1.00;;;;;;;;;;4952369;28;20624;-51
2023/08/24 12:48:13;;;;;;;2.95;1.13;;;;;;;;;;4936287;28;20231;-48
2023/08/24 12:50:41;;;;;;;5.50;1.80;;;;;;;;;;4943665;28;20783;-50
2023/08/24 12:53:08;;;;;;;6.05;1.58;;;;;;;;;;4954755;28;20227;-54
2023/08/24 12:55:38;;;;;;;2.83;1.30;;;;;;;;;;4955621;28;20665;-56
2023/08/24 12:58:06;;;;;;;3.95;1.33;;;;;;;;;;4951953;28;20231;-55
2023/08/24 13:00:33;;;;;;;3.90;1.08;;;;;;;;;;4957097;28;20268;-51
2023/08/24 13:03:00;;;;;;;3.67;1.02;;;;;;;;;;4953550;28;20227;-52
2023/08/24 13:05:27;;;;;;;3.35;1.60;;;;;;;;;;4953343;28;20217;-53
2023/08/24 13:07:56;;;;;;;3.53;1.20;;;;;;;;;;4954135;28;20696;-53
2023/08/24 13:10:23;;;;;;;1.83;1.05;;;;;;;;;;4954936;28;20227;-54
2023/08/24 13:12:50;;;;;;;6.70;1.77;;;;;;;;;;4955575;28;20546;-54
2023/08/24 13:15:17;;;;;;;3.33;1.75;;;;;;;;;;4953997;28;20223;-53
2023/08/24 13:17:44;;;;;;;1.80;0.90;;;;;;;;;;4954918;28;20234;-49
2023/08/24 13:20:11;;;;;;;1.27;1.05;;;;;;;;;;4954662;28;20688;-51
2023/08/24 13:22:39;;;;;;;2.50;1.15;;;;;;;;;;4955417;28;20227;-53
2023/08/24 13:25:06;;;;;;;3.80;1.15;;;;;;;;;;4951949;28;20215;-51
2023/08/24 13:27:34;;;;;;;1.17;0.93;;;;;;;;;;4951608;28;20720;-53
2023/08/24 13:30:01;;;;;;;1.27;1.10;;;;;;;;;;4935262;28;20231;-54
2023/08/24 13:32:28;;;;;;;4.30;1.10;;;;;;;;;;4942965;28;20242;-51
2023/08/24 13:34:56;;;;;;;2.10;1.05;;;;;;;;;;4942446;28;20251;-54
2023/08/24 13:37:26;;;;;;;2.70;1.20;;;;;;;;;;4943651;28;20247;-50
2023/08/24 13:39:53;;;;;;;2.67;0.85;;;;;;;;;;4944937;28;20235;-49
2023/08/24 13:42:20;;;;;;;4.57;1.30;;;;;;;;;;4954547;28;20220;-50
2023/08/24 13:44:47;;;;;;;1.73;1.00;;;;;;;;;;4953008;28;20250;-51
2023/08/24 13:47:15;;;;;;;2.63;1.00;;;;;;;;;;4947265;28;20224;-51
2023/08/24 13:49:42;;;;;;;4.00;1.10;;;;;;;;;;4938353;28;20236;-48
2023/08/24 13:52:09;;;;;;;4.90;1.00;;;;;;;;;;4941056;28;20227;-50
2023/08/24 13:54:36;;;;;;;1.98;1.45;;;;;;;;;;4953223;28;20223;-49
2023/08/24 13:57:04;;;;;;;2.38;1.08;;;;;;;;;;4946477;28;20258;-49
2023/08/24 13:59:32;;;;;;;3.85;1.33;;;;;;;;;;4939924;28;20216;-49
2023/08/24 14:01:59;;;;;;;2.90;1.52;;;;;;;;;;4939198;28;20222;-50
2023/08/24 14:04:26;;;;;;;2.00;1.10;;;;;;;;;;4954617;28;20222;-49
2023/08/24 14:06:54;;;;;;;2.83;1.30;;;;;;;;;;4941659;28;20243;-52
2023/08/24 14:09:21;;;;;;;1.17;1.02;;;;;;;;;;4941258;28;20304;-51
2023/08/24 14:11:48;;;;;;;4.38;1.35;;;;;;;;;;4936496;28;20232;-51
2023/08/24 14:14:15;;;;;;;4.78;1.40;;;;;;;;;;4952035;28;20220;-48
2023/08/24 14:16:43;;;;;;;2.35;1.33;;;;;;;;;;4946550;28;20691;-52
2023/08/24 14:19:10;;;;;;;1.80;1.17;;;;;;;;;;4943134;28;20231;-52
2023/08/24 14:21:37;;;;;;;4.47;1.20;;;;;;;;;;4935248;28;20287;-54
2023/08/24 14:24:11;;;;;;;7.18;1.20;;;;;;;;;;4935600;28;20307;-54
2023/08/24 14:26:45;;;;;;;5.55;1.50;;;;;;;;;;4942776;28;20271;-50
2023/08/24 14:29:13;;;;;;;1.75;1.20;;;;;;;;;;4935197;28;20231;-51
2023/08/24 14:31:41;;;;;;;1.75;1.30;;;;;;;;;;4950869;28;20289;-50
2023/08/24 14:34:08;;;;;;;1.63;1.10;;;;;;;;;;4951000;28;20792;-49
2023/08/24 14:36:35;;;;;;;2.53;0.90;;;;;;;;;;4935511;28;20231;-50
2023/08/24 14:39:03;;;;;;;4.43;1.45;;;;;;;;;;4942983;28;20290;-53
2023/08/24 14:41:30;;;;;;;2.00;1.10;;;;;;;;;;4934884;28;20635;-51
2023/08/24 14:43:59;;;;;;;2.05;1.40;;;;;;;;;;4950295;28;20226;-50
2023/08/24 14:46:26;;;;;;;3.75;1.48;;;;;;;;;;4935418;28;20224;-52
2023/08/24 14:48:53;;;;;;;3.30;1.17;;;;;;;;;;4943042;28;20243;-51
2023/08/24 14:51:21;;;;;;;2.50;0.98;;;;;;;;;;4933487;28;20224;-49
2023/08/24 14:53:48;;;;;;;4.38;1.40;;;;;;;;;;4949653;28;20238;-53